createdAt,value
2018-04-02T00:00:34.594Z,1.35
2018-04-02T00:03:00.997Z,1.34
2018-04-02T00:05:27.407Z,1.48
2018-04-02T00:07:53.868Z,1.36
2018-04-02T00:10:20.441Z,1.19
2018-04-02T00:12:46.961Z,1.07
2018-04-02T00:15:13.458Z,1.15
2018-04-02T00:17:39.839Z,1.11
2018-04-02T00:20:06.361Z,1.19
2018-04-02T00:22:32.798Z,0.99
2018-04-02T00:24:59.291Z,0.99
2018-04-02T00:27:25.760Z,1.02
2018-04-02T00:29:52.310Z,0.99
2018-04-02T00:32:18.722Z,0.94
2018-04-02T00:34:45.261Z,0.86
2018-04-02T00:37:11.691Z,0.79
2018-04-02T00:39:38.216Z,0.83
2018-04-02T00:42:04.805Z,0.74
2018-04-02T00:44:31.306Z,1.03
2018-04-02T00:46:57.750Z,1.15
2018-04-02T00:49:25.266Z,1.36
2018-04-02T00:51:51.772Z,1.11
2018-04-02T00:54:18.192Z,0.81
2018-04-02T00:56:44.879Z,0.72
2018-04-02T00:59:12.500Z,0.80
2018-04-02T01:01:38.981Z,0.67
2018-04-02T01:04:05.595Z,0.79
2018-04-02T01:06:32.108Z,0.94
2018-04-02T01:08:58.547Z,0.96
2018-04-02T01:11:25.015Z,0.95
2018-04-02T01:13:51.692Z,0.64
2018-04-02T01:16:18.143Z,0.46
2018-04-02T01:18:44.574Z,0.39
2018-04-02T01:21:11.056Z,0.48
2018-04-02T01:23:37.511Z,0.52
2018-04-02T01:26:03.952Z,0.53
2018-04-02T01:28:30.464Z,0.51
2018-04-02T01:30:57.707Z,0.66
2018-04-02T01:33:24.227Z,0.59
2018-04-02T01:35:50.555Z,0.57
2018-04-02T01:38:16.885Z,0.68
2018-04-02T01:40:43.468Z,0.84
2018-04-02T01:43:09.875Z,1.07
2018-04-02T01:45:36.303Z,1.42
2018-04-02T01:48:02.731Z,1.49
2018-04-02T01:50:29.188Z,1.03
2018-04-02T01:52:55.545Z,0.59
2018-04-02T01:55:22.053Z,0.27
2018-04-02T01:57:48.432Z,0.11
2018-04-02T02:00:14.923Z,0.13
2018-04-02T02:02:41.445Z,-0.12
2018-04-02T02:05:07.850Z,-0.08
2018-04-02T02:07:34.250Z,0.07
2018-04-02T02:10:00.821Z,0.13
2018-04-02T02:12:27.227Z,0.05
2018-04-02T02:14:53.832Z,-0.04
2018-04-02T02:17:20.314Z,-0.08
2018-04-02T02:19:46.739Z,-0.04
2018-04-02T02:22:13.098Z,0.14
2018-04-02T02:24:39.527Z,0.22
2018-04-02T02:27:05.888Z,0.01
2018-04-02T02:29:32.361Z,-0.18
2018-04-02T02:31:58.848Z,-0.26
2018-04-02T02:34:25.272Z,-0.24
2018-04-02T02:36:51.670Z,-0.20
2018-04-02T02:39:18.152Z,-0.21
2018-04-02T02:41:44.468Z,-0.16
2018-04-02T02:44:10.925Z,-0.17
2018-04-02T02:46:37.331Z,-0.25
2018-04-02T02:49:03.795Z,-0.24
2018-04-02T02:51:30.221Z,-0.26
2018-04-02T02:53:56.627Z,-0.32
2018-04-02T02:56:22.996Z,-0.33
2018-04-02T02:58:49.401Z,-0.38
2018-04-02T03:01:15.893Z,-0.30
2018-04-02T03:03:42.282Z,-0.26
2018-04-02T03:06:08.723Z,-0.30
2018-04-02T03:08:35.121Z,-0.11
2018-04-02T03:11:01.690Z,-0.23
2018-04-02T03:13:28.187Z,-0.28
2018-04-02T03:15:54.642Z,-0.20
2018-04-02T03:18:20.986Z,-0.22
2018-04-02T03:20:47.475Z,-0.17
2018-04-02T03:23:13.900Z,-0.31
2018-04-02T03:25:40.346Z,-0.38
2018-04-02T03:28:06.812Z,-0.37
2018-04-02T03:30:33.272Z,-0.27
2018-04-02T03:32:59.737Z,-0.27
2018-04-02T03:35:26.165Z,-0.41
2018-04-02T03:37:52.562Z,-0.57
2018-04-02T03:40:19.012Z,-0.56
2018-04-02T03:42:45.416Z,-0.54
2018-04-02T03:45:11.843Z,-0.46
2018-04-02T03:47:38.202Z,-0.49
2018-04-02T03:50:04.786Z,-0.49
2018-04-02T03:52:31.196Z,-0.40
2018-04-02T03:54:57.650Z,-0.36
2018-04-02T03:57:24.028Z,-0.43
2018-04-02T03:59:50.495Z,-0.41
2018-04-02T04:02:16.933Z,-0.51
2018-04-02T04:04:43.359Z,-0.58
2018-04-02T04:07:09.800Z,-0.54
2018-04-02T04:09:36.234Z,-0.48
2018-04-02T04:12:02.601Z,-0.49
2018-04-02T04:14:29.065Z,-0.49
2018-04-02T04:16:56.160Z,-0.44
2018-04-02T04:19:22.667Z,-0.49
2018-04-02T04:21:49.196Z,-0.23
2018-04-02T04:24:15.665Z,-0.38
2018-04-02T04:26:42.272Z,-0.25
2018-04-02T04:29:08.791Z,-0.11
2018-04-02T04:31:35.261Z,-0.04
2018-04-02T04:34:01.637Z,-0.06
2018-04-02T04:36:28.063Z,-0.11
2018-04-02T04:38:54.514Z,-0.08
2018-04-02T04:41:21.030Z,-0.03
2018-04-02T04:43:47.593Z,0.13
2018-04-02T04:46:14.010Z,0.09
2018-04-02T04:48:40.478Z,0.14
2018-04-02T04:51:07.170Z,0.34
2018-04-02T04:53:33.704Z,0.43
2018-04-02T04:56:00.476Z,0.13
2018-04-02T04:58:27.285Z,0.05
2018-04-02T05:00:53.879Z,0.12
2018-04-02T05:03:20.451Z,0.15
2018-04-02T05:05:49.110Z,0.22
2018-04-02T05:08:18.004Z,0.25
2018-04-02T05:10:45.227Z,0.34
2018-04-02T05:13:11.895Z,0.45
2018-04-02T05:15:38.509Z,0.57
2018-04-02T05:18:05.053Z,0.66
2018-04-02T05:20:31.714Z,0.55
2018-04-02T05:22:59.155Z,0.56
2018-04-02T05:25:25.565Z,0.66
2018-04-02T05:27:52.110Z,0.80
2018-04-02T05:30:18.719Z,0.79
2018-04-02T05:32:45.346Z,0.70
2018-04-02T05:35:12.007Z,0.68
2018-04-02T05:37:41.026Z,0.68
2018-04-02T05:40:08.785Z,0.78
2018-04-02T05:42:35.310Z,0.93
2018-04-02T05:45:01.954Z,1.21
2018-04-02T05:47:28.429Z,1.27
2018-04-02T05:49:55.107Z,1.24
2018-04-02T05:52:21.903Z,1.35
2018-04-02T05:54:48.384Z,1.51
2018-04-02T05:57:15.058Z,1.42
2018-04-02T05:59:42.118Z,1.45
2018-04-02T06:02:09.032Z,1.62
2018-04-02T06:04:35.556Z,1.65
2018-04-02T06:07:01.924Z,1.82
2018-04-02T06:09:28.792Z,2.05
2018-04-02T06:11:55.444Z,2.24
2018-04-02T06:14:22.149Z,2.32
2018-04-02T06:16:49.181Z,2.25
2018-04-02T06:19:16.287Z,2.13
2018-04-02T06:21:43.122Z,2.18
2018-04-02T06:24:09.626Z,2.26
2018-04-02T06:26:36.725Z,2.26
2018-04-02T06:29:03.378Z,2.33
2018-04-02T06:31:30.170Z,2.18
2018-04-02T06:33:56.678Z,2.32
2018-04-02T06:36:23.321Z,2.61
2018-04-02T06:38:49.985Z,2.68
2018-04-02T06:41:17.261Z,2.76
2018-04-02T06:43:44.636Z,3.03
2018-04-02T06:46:11.162Z,3.96
2018-04-02T06:48:37.648Z,5.04
2018-04-02T06:51:04.255Z,4.41
2018-04-02T06:53:30.720Z,3.69
2018-04-02T06:55:57.251Z,3.42
2018-04-02T06:58:23.866Z,3.52
2018-04-02T07:00:52.484Z,4.65
2018-04-02T07:03:19.615Z,6.01
2018-04-02T07:05:47.752Z,6.38
2018-04-02T07:08:14.656Z,6.42
2018-04-02T07:10:41.204Z,6.51
2018-04-02T07:13:07.827Z,6.68
2018-04-02T07:15:34.504Z,6.79
2018-04-02T07:18:01.592Z,6.73
2018-04-02T07:20:28.682Z,7.20
2018-04-02T07:22:55.209Z,7.23
2018-04-02T07:25:21.843Z,7.14
2018-04-02T07:27:48.723Z,6.83
2018-04-02T07:30:15.345Z,6.62
2018-04-02T07:32:42.180Z,6.32
2018-04-02T07:35:09.069Z,6.09
2018-04-02T07:37:35.745Z,5.96
2018-04-02T07:40:04.091Z,6.89
2018-04-02T07:42:31.080Z,7.28
2018-04-02T07:44:58.672Z,7.65
2018-04-02T07:47:26.040Z,7.23
2018-04-02T07:49:53.337Z,8.24
2018-04-02T07:52:20.547Z,8.89
2018-04-02T07:54:48.235Z,8.48
2018-04-02T07:57:15.331Z,8.84
2018-04-02T07:59:43.913Z,7.63
2018-04-02T08:02:12.176Z,8.02
2018-04-02T08:04:39.207Z,8.25
2018-04-02T08:07:06.034Z,8.49
2018-04-02T08:09:32.898Z,8.57
2018-04-02T08:11:59.773Z,8.96
2018-04-02T08:14:26.411Z,9.25
2018-04-02T08:16:53.053Z,8.96
2018-04-02T08:19:20.956Z,9.87
2018-04-02T08:21:47.693Z,10.43
2018-04-02T08:24:14.661Z,11.02
2018-04-02T08:26:41.439Z,10.92
2018-04-02T08:29:08.059Z,11.28
2018-04-02T08:31:34.760Z,10.90
2018-04-02T08:34:01.363Z,10.44
2018-04-02T08:36:28.041Z,10.63
2018-04-02T08:38:54.559Z,10.67
2018-04-02T08:41:21.146Z,10.42
2018-04-02T08:43:48.303Z,10.56
2018-04-02T08:46:17.672Z,10.89
2018-04-02T08:48:44.868Z,10.52
2018-04-02T08:51:11.605Z,10.71
2018-04-02T08:53:38.246Z,10.80
2018-04-02T08:56:04.877Z,10.61
2018-04-02T08:58:31.530Z,10.87
2018-04-02T09:00:58.075Z,10.77
2018-04-02T09:03:24.693Z,11.28
2018-04-02T09:05:51.285Z,11.12
2018-04-02T09:08:17.805Z,11.23
2018-04-02T09:10:45.214Z,11.67
2018-04-02T09:13:11.730Z,11.96
2018-04-02T09:15:38.391Z,11.98
2018-04-02T09:18:04.966Z,10.58
2018-04-02T09:20:32.702Z,11.00
2018-04-02T09:22:59.760Z,10.77
2018-04-02T09:25:26.620Z,10.51
2018-04-02T09:27:53.200Z,10.56
2018-04-02T09:30:19.891Z,10.54
2018-04-02T09:32:46.716Z,10.48
2018-04-02T09:35:13.995Z,12.04
2018-04-02T09:37:40.543Z,12.63
2018-04-02T09:40:07.006Z,12.79
2018-04-02T09:42:33.544Z,12.41
2018-04-02T09:45:00.144Z,13.18
2018-04-02T09:47:26.750Z,13.80
2018-04-02T09:49:53.392Z,14.39
2018-04-02T09:52:20.471Z,14.38
2018-04-02T09:54:47.340Z,14.17
2018-04-02T09:57:13.815Z,14.12
2018-04-02T09:59:40.405Z,14.83
2018-04-02T10:02:13.065Z,14.50
2018-04-02T10:04:42.714Z,14.95
2018-04-02T10:07:08.948Z,15.57
2018-04-02T10:09:35.608Z,15.30
2018-04-02T10:12:10.618Z,15.49
2018-04-02T10:14:37.128Z,15.63
2018-04-02T10:17:03.576Z,15.32
2018-04-02T10:19:30.217Z,15.52
2018-04-02T10:21:56.755Z,15.53
2018-04-02T10:24:23.345Z,14.87
2018-04-02T10:26:50.038Z,14.01
2018-04-02T10:29:16.747Z,13.79
2018-04-02T10:31:43.386Z,14.28
2018-04-02T10:34:09.930Z,14.83
2018-04-02T10:36:36.520Z,14.18
2018-04-02T10:39:03.965Z,14.69
2018-04-02T10:41:32.619Z,15.26
2018-04-02T10:43:59.400Z,15.20
2018-04-02T10:46:26.254Z,14.86
2018-04-02T10:48:52.898Z,14.78
2018-04-02T10:51:19.550Z,14.92
2018-04-02T10:53:46.646Z,14.80
2018-04-02T10:56:13.916Z,14.90
2018-04-02T10:58:41.343Z,15.11
2018-04-02T11:01:08.561Z,15.33
2018-04-02T11:03:36.385Z,15.91
2018-04-02T11:06:04.581Z,16.18
2018-04-02T11:08:31.571Z,16.08
2018-04-02T11:10:58.401Z,15.96
2018-04-02T11:13:24.867Z,15.81
2018-04-02T11:15:51.427Z,15.95
2018-04-02T11:18:18.308Z,14.64
2018-04-02T11:20:45.242Z,13.97
2018-04-02T11:23:12.250Z,14.03
2018-04-02T11:25:38.928Z,13.36
2018-04-02T11:28:05.794Z,13.19
2018-04-02T11:30:32.763Z,13.55
2018-04-02T11:32:59.969Z,14.04
2018-04-02T11:35:27.214Z,14.38
2018-04-02T11:37:56.711Z,14.10
2018-04-02T11:40:23.713Z,14.35
2018-04-02T11:42:50.901Z,14.47
2018-04-02T11:45:17.716Z,14.00
2018-04-02T11:47:44.515Z,14.21
2018-04-02T11:50:11.479Z,13.04
2018-04-02T11:52:38.265Z,13.03
2018-04-02T11:55:04.904Z,13.76
2018-04-02T11:57:31.667Z,14.63
2018-04-02T11:59:58.590Z,14.13
2018-04-02T12:02:25.598Z,13.89
2018-04-02T12:04:52.283Z,14.23
2018-04-02T12:07:19.119Z,14.55
2018-04-02T12:09:45.928Z,14.76
2018-04-02T12:12:13.953Z,14.27
2018-04-02T12:14:41.313Z,14.42
2018-04-02T12:17:08.122Z,14.70
2018-04-02T12:19:34.823Z,15.05
2018-04-02T12:22:01.786Z,14.89
2018-04-02T12:24:29.338Z,14.53
2018-04-02T12:26:59.057Z,15.11
2018-04-02T12:29:26.728Z,14.97
2018-04-02T12:31:54.471Z,15.02
2018-04-02T12:34:22.408Z,14.90
2018-04-02T12:36:49.351Z,14.57
2018-04-02T12:39:17.194Z,14.16
2018-04-02T12:41:43.905Z,13.92
2018-04-02T12:44:10.617Z,14.18
2018-04-02T12:46:37.497Z,14.56
2018-04-02T12:49:04.859Z,14.56
2018-04-02T12:51:31.642Z,14.74
2018-04-02T12:53:58.347Z,14.78
2018-04-02T12:56:25.323Z,14.93
2018-04-02T12:58:52.108Z,14.73
2018-04-02T13:01:18.981Z,14.86
2018-04-02T13:03:45.649Z,14.83
2018-04-02T13:06:12.223Z,14.43
2018-04-02T13:08:38.829Z,14.33
2018-04-02T13:11:05.453Z,14.57
2018-04-02T13:13:31.970Z,14.48
2018-04-02T13:15:58.736Z,14.73
2018-04-02T13:18:26.039Z,14.74
2018-04-02T13:20:56.119Z,15.18
2018-04-02T13:23:22.975Z,15.33
2018-04-02T13:25:49.535Z,15.36
2018-04-02T13:28:16.052Z,15.30
2018-04-02T13:30:42.642Z,15.07
2018-04-02T13:33:09.352Z,14.78
2018-04-02T13:35:35.953Z,14.70
2018-04-02T13:38:03.003Z,14.67
2018-04-02T13:40:29.635Z,14.36
2018-04-02T13:42:56.335Z,14.58
2018-04-02T13:45:22.845Z,14.46
2018-04-02T13:47:49.726Z,14.52
2018-04-02T13:50:16.235Z,14.65
2018-04-02T13:52:42.891Z,14.64
2018-04-02T13:55:09.413Z,14.25
2018-04-02T13:57:35.839Z,14.36
2018-04-02T14:00:02.524Z,13.98
2018-04-02T14:02:29.369Z,14.01
2018-04-02T14:04:55.885Z,14.06
2018-04-02T14:07:22.761Z,14.41
2018-04-02T14:09:49.455Z,14.41
2018-04-02T14:12:16.125Z,14.69
2018-04-02T14:14:42.713Z,14.49
2018-04-02T14:17:09.282Z,13.84
2018-04-02T14:19:35.971Z,13.90
2018-04-02T14:22:03.401Z,13.86
2018-04-02T14:24:29.940Z,13.85
2018-04-02T14:26:56.420Z,13.85
2018-04-02T14:29:23.077Z,13.83
2018-04-02T14:31:49.637Z,13.66
2018-04-02T14:34:16.170Z,13.43
2018-04-02T14:36:42.715Z,13.40
2018-04-02T14:39:09.879Z,13.51
2018-04-02T14:41:36.451Z,13.61
2018-04-02T14:44:03.385Z,13.81
2018-04-02T14:46:29.955Z,13.78
2018-04-02T14:48:56.416Z,13.64
2018-04-02T14:51:23.093Z,13.76
2018-04-02T14:53:49.678Z,13.32
2018-04-02T14:56:16.567Z,13.39
2018-04-02T14:58:43.062Z,13.26
2018-04-02T15:01:09.707Z,13.28
2018-04-02T15:03:36.524Z,13.27
2018-04-02T15:06:03.193Z,13.21
2018-04-02T15:08:30.109Z,13.03
2018-04-02T15:10:56.856Z,13.06
2018-04-02T15:13:23.833Z,13.01
2018-04-02T15:15:50.687Z,12.95
2018-04-02T15:18:17.235Z,13.02
2018-04-02T15:20:43.867Z,12.94
2018-04-02T15:23:10.868Z,12.72
2018-04-02T15:25:37.625Z,12.58
2018-04-02T15:28:04.134Z,12.62
2018-04-02T15:30:30.804Z,12.49
2018-04-02T15:32:57.538Z,12.36
2018-04-02T15:35:24.060Z,12.43
2018-04-02T15:37:50.528Z,12.41
2018-04-02T15:40:17.093Z,12.28
2018-04-02T15:42:43.629Z,12.16
2018-04-02T15:45:10.209Z,12.09
2018-04-02T15:47:36.702Z,12.00
2018-04-02T15:50:03.212Z,11.83
2018-04-02T15:52:29.764Z,11.65
2018-04-02T15:54:56.208Z,11.59
2018-04-02T15:57:22.687Z,11.40
2018-04-02T15:59:49.317Z,11.34
2018-04-02T16:02:15.947Z,11.27
2018-04-02T16:04:42.497Z,11.21
2018-04-02T16:07:10.097Z,10.94
2018-04-02T16:09:36.710Z,10.89
2018-04-02T16:12:03.410Z,10.80
2018-04-02T16:14:30.085Z,10.51
2018-04-02T16:16:57.047Z,10.33
2018-04-02T16:19:23.696Z,10.18
2018-04-02T16:21:51.274Z,10.06
2018-04-02T16:24:17.800Z,9.87
2018-04-02T16:26:44.265Z,9.70
2018-04-02T16:29:11.179Z,9.55
2018-04-02T16:31:37.887Z,9.42
2018-04-02T16:34:04.489Z,9.24
2018-04-02T16:36:31.294Z,9.07
2018-04-02T16:38:58.032Z,8.90
2018-04-02T16:41:24.669Z,8.74
2018-04-02T16:43:51.428Z,8.62
2018-04-02T16:46:18.077Z,8.40
2018-04-02T16:48:46.633Z,8.27
2018-04-02T16:51:14.102Z,8.14
2018-04-02T16:53:41.052Z,7.92
2018-04-02T16:56:08.240Z,7.75
2018-04-02T16:58:35.603Z,7.56
2018-04-02T17:01:02.482Z,7.43
2018-04-02T17:03:29.072Z,7.27
2018-04-02T17:05:55.855Z,7.18
2018-04-02T17:08:22.961Z,7.06
2018-04-02T17:10:53.832Z,6.84
2018-04-02T17:13:20.945Z,6.84
2018-04-02T17:15:47.574Z,6.71
2018-04-02T17:18:14.722Z,6.54
2018-04-02T17:20:42.444Z,6.48
2018-04-02T17:23:09.826Z,6.47
2018-04-02T17:25:36.395Z,6.47
2018-04-02T17:28:03.285Z,6.37
2018-04-02T17:30:30.047Z,6.36
2018-04-02T17:32:58.440Z,6.19
2018-04-02T17:35:25.138Z,6.07
2018-04-02T17:37:51.775Z,5.97
2018-04-02T17:40:18.461Z,5.99
2018-04-02T17:42:45.185Z,5.95
2018-04-02T17:45:12.273Z,5.92
2018-04-02T17:47:39.892Z,5.87
2018-04-02T17:50:07.044Z,5.85
2018-04-02T17:52:33.983Z,5.81
2018-04-02T17:55:01.461Z,5.66
2018-04-02T17:57:28.296Z,5.62
2018-04-02T17:59:55.322Z,5.57
2018-04-02T18:02:22.721Z,5.58
2018-04-02T18:04:49.532Z,5.50
2018-04-02T18:07:16.538Z,5.39
2018-04-02T18:09:43.879Z,5.45
2018-04-02T18:12:11.006Z,5.30
2018-04-02T18:14:38.615Z,5.24
2018-04-02T18:17:05.290Z,5.17
2018-04-02T18:19:32.556Z,5.09
2018-04-02T18:22:00.867Z,5.05
2018-04-02T18:24:28.534Z,5.01
2018-04-02T18:26:55.560Z,4.99
2018-04-02T18:29:22.554Z,4.98
2018-04-02T18:31:52.903Z,4.98
2018-04-02T18:34:20.173Z,4.94
2018-04-02T18:36:46.815Z,4.88
2018-04-02T18:39:13.551Z,4.89
2018-04-02T18:41:40.508Z,4.88
2018-04-02T18:44:07.177Z,4.86
2018-04-02T18:46:33.823Z,4.85
2018-04-02T18:49:01.218Z,4.89
2018-04-02T18:51:28.043Z,4.88
2018-04-02T18:53:54.633Z,4.81
2018-04-02T18:56:21.189Z,4.76
2018-04-02T18:58:47.647Z,4.93
2018-04-02T19:01:15.454Z,4.78
2018-04-02T19:03:42.505Z,4.65
2018-04-02T19:06:09.219Z,4.56
2018-04-02T19:08:36.890Z,4.44
2018-04-02T19:11:04.532Z,5.49
2018-04-02T19:13:31.326Z,5.19
2018-04-02T19:15:58.558Z,4.86
2018-04-02T19:18:25.442Z,4.76
2018-04-02T19:20:52.237Z,4.70
2018-04-02T19:23:18.753Z,4.62
2018-04-02T19:25:47.538Z,4.53
2018-04-02T19:28:14.207Z,4.42
2018-04-02T19:30:40.801Z,4.33
2018-04-02T19:33:08.012Z,4.27
2018-04-02T19:35:35.110Z,4.26
2018-04-02T19:38:02.131Z,4.25
2018-04-02T19:40:29.552Z,4.29
2018-04-02T19:42:56.631Z,4.35
2018-04-02T19:45:23.452Z,4.29
2018-04-02T19:47:50.623Z,4.25
2018-04-02T19:50:17.463Z,4.22
2018-04-02T19:52:44.334Z,4.27
2018-04-02T19:55:11.325Z,4.26
2018-04-02T19:57:37.994Z,4.22
2018-04-02T20:00:04.570Z,4.13
2018-04-02T20:02:31.352Z,4.12
2018-04-02T20:04:58.046Z,4.17
2018-04-02T20:07:24.753Z,4.16
2018-04-02T20:09:51.392Z,4.09
2018-04-02T20:12:18.279Z,4.07
2018-04-02T20:14:44.829Z,4.14
2018-04-02T20:17:11.306Z,4.33
2018-04-02T20:19:37.807Z,4.41
2018-04-02T20:22:04.314Z,4.38
2018-04-02T20:24:30.889Z,4.44
2018-04-02T20:26:57.440Z,4.13
2018-04-02T20:29:24.192Z,4.20
2018-04-02T20:31:51.273Z,4.16
2018-04-02T20:34:18.372Z,3.87
2018-04-02T20:36:45.295Z,3.64
2018-04-02T20:39:12.126Z,3.52
2018-04-02T20:41:39.546Z,3.41
2018-04-02T20:44:07.621Z,3.38
2018-04-02T20:46:34.553Z,3.26
2018-04-02T20:49:01.369Z,3.23
2018-04-02T20:51:28.068Z,3.14
2018-04-02T20:54:05.706Z,3.08
2018-04-02T20:56:32.451Z,3.00
2018-04-02T20:58:59.038Z,3.01
2018-04-02T21:01:26.012Z,2.97
2018-04-02T21:03:52.556Z,2.82
2018-04-02T21:06:19.142Z,2.80
2018-04-02T21:08:45.994Z,2.76
2018-04-02T21:11:13.292Z,2.83
2018-04-02T21:13:40.886Z,2.82
2018-04-02T21:16:08.047Z,2.84
2018-04-02T21:18:34.856Z,2.89
2018-04-02T21:21:02.244Z,2.82
2018-04-02T21:23:29.012Z,2.67
2018-04-02T21:25:55.797Z,2.68
2018-04-02T21:28:22.808Z,2.78
2018-04-02T21:30:49.465Z,2.76
2018-04-02T21:33:16.204Z,2.75
2018-04-02T21:35:42.747Z,2.72
2018-04-02T21:38:09.210Z,2.72
2018-04-02T21:40:35.593Z,2.69
2018-04-02T21:43:02.196Z,2.76
2018-04-02T21:45:28.670Z,2.82
2018-04-02T21:47:55.068Z,2.84
2018-04-02T21:50:21.508Z,2.88
2018-04-02T21:52:48.007Z,2.96
2018-04-02T21:55:14.324Z,3.07
2018-04-02T21:57:40.682Z,3.11
2018-04-02T22:00:07.167Z,3.17
2018-04-02T22:02:33.603Z,3.12
2018-04-02T22:05:00.062Z,2.97
2018-04-02T22:07:26.511Z,2.94
2018-04-02T22:09:52.875Z,2.91
2018-04-02T22:12:19.570Z,2.91
2018-04-02T22:14:46.021Z,2.96
2018-04-02T22:17:12.480Z,2.90
2018-04-02T22:19:38.993Z,2.77
2018-04-02T22:22:05.361Z,2.66
2018-04-02T22:24:31.724Z,2.60
2018-04-02T22:26:58.163Z,2.65
2018-04-02T22:29:24.952Z,2.61
2018-04-02T22:31:51.790Z,2.62
2018-04-02T22:34:18.441Z,2.60
2018-04-02T22:36:44.797Z,2.56
2018-04-02T22:39:11.306Z,2.65
2018-04-02T22:41:38.013Z,2.94
2018-04-02T22:44:04.428Z,2.56
2018-04-02T22:46:30.951Z,2.89
2018-04-02T22:48:57.346Z,3.00
2018-04-02T22:51:24.077Z,3.06
2018-04-02T22:53:50.550Z,2.59
2018-04-02T22:56:17.226Z,2.33
2018-04-02T22:58:43.679Z,2.02
2018-04-02T23:01:10.104Z,1.86
2018-04-02T23:03:36.720Z,1.75
2018-04-02T23:06:03.075Z,1.68
2018-04-02T23:08:29.474Z,1.62
2018-04-02T23:10:55.885Z,1.56
2018-04-02T23:13:22.236Z,1.65
2018-04-02T23:15:48.578Z,1.53
2018-04-02T23:18:14.919Z,1.60
2018-04-02T23:20:41.309Z,1.66
2018-04-02T23:23:07.736Z,1.66
2018-04-02T23:25:34.231Z,1.56
2018-04-02T23:28:00.571Z,1.59
2018-04-02T23:30:26.890Z,1.46
2018-04-02T23:32:53.318Z,1.44
2018-04-02T23:35:19.615Z,1.48
2018-04-02T23:37:45.960Z,1.47
2018-04-02T23:40:12.451Z,1.57
2018-04-02T23:42:38.845Z,1.81
2018-04-02T23:45:05.213Z,1.66
2018-04-02T23:47:31.689Z,1.44
2018-04-02T23:49:58.237Z,1.27
2018-04-02T23:52:24.700Z,1.26
2018-04-02T23:54:51.098Z,1.21
2018-04-02T23:57:17.502Z,1.08
2018-04-02T23:59:43.893Z,1.13
